createdAt,value
2018-09-09T00:01:39.733Z,13.33
2018-09-09T00:04:08.315Z,13.33
2018-09-09T00:06:36.893Z,13.32
2018-09-09T00:09:06.639Z,13.33
2018-09-09T00:11:35.212Z,13.27
2018-09-09T00:14:03.811Z,13.19
2018-09-09T00:16:32.388Z,13.08
2018-09-09T00:19:00.934Z,13.00
2018-09-09T00:21:29.506Z,12.96
2018-09-09T00:23:58.074Z,12.94
2018-09-09T00:26:26.664Z,12.91
2018-09-09T00:28:55.242Z,12.92
2018-09-09T00:31:23.822Z,12.92
2018-09-09T00:33:52.395Z,12.88
2018-09-09T00:36:20.977Z,12.83
2018-09-09T00:38:49.562Z,12.80
2018-09-09T00:41:18.133Z,12.79
2018-09-09T00:43:46.706Z,12.76
2018-09-09T00:46:15.294Z,12.72
2018-09-09T00:48:43.850Z,12.67
2018-09-09T00:51:17.613Z,12.61
2018-09-09T00:53:48.047Z,12.58
2018-09-09T00:56:17.611Z,12.55
2018-09-09T00:58:46.176Z,12.52
2018-09-09T01:01:15.661Z,12.50
2018-09-09T01:03:45.128Z,12.48
2018-09-09T01:06:13.715Z,12.47
2018-09-09T01:08:42.307Z,12.46
2018-09-09T01:11:11.470Z,12.44
2018-09-09T01:13:40.021Z,12.42
2018-09-09T01:16:08.859Z,12.40
2018-09-09T01:18:37.470Z,12.40
2018-09-09T01:21:06.097Z,12.43
2018-09-09T01:23:34.650Z,12.46
2018-09-09T01:26:03.226Z,12.47
2018-09-09T01:28:31.813Z,12.48
2018-09-09T01:31:00.418Z,12.45
2018-09-09T01:33:28.975Z,12.43
2018-09-09T01:35:57.552Z,12.42
2018-09-09T01:38:26.109Z,12.41
2018-09-09T01:40:54.702Z,12.41
2018-09-09T01:43:23.261Z,12.41
2018-09-09T01:45:51.861Z,12.44
2018-09-09T01:48:20.407Z,12.48
2018-09-09T01:50:48.989Z,12.48
2018-09-09T01:53:17.561Z,12.45
2018-09-09T01:55:46.168Z,12.39
2018-09-09T01:58:14.737Z,12.32
2018-09-09T02:00:43.352Z,12.26
2018-09-09T02:03:11.945Z,12.22
2018-09-09T02:05:40.508Z,12.22
2018-09-09T02:08:09.096Z,12.22
2018-09-09T02:10:37.679Z,12.24
2018-09-09T02:13:06.262Z,12.26
2018-09-09T02:15:34.839Z,12.26
2018-09-09T02:18:03.421Z,12.22
2018-09-09T02:20:31.989Z,12.17
2018-09-09T02:23:00.556Z,12.14
2018-09-09T02:25:29.124Z,12.11
2018-09-09T02:27:57.745Z,12.10
2018-09-09T02:30:26.344Z,12.08
2018-09-09T02:32:54.935Z,12.10
2018-09-09T02:35:23.509Z,12.12
2018-09-09T02:37:52.095Z,12.13
2018-09-09T02:40:20.668Z,12.14
2018-09-09T02:42:49.258Z,12.14
2018-09-09T02:45:17.822Z,12.11
2018-09-09T02:47:46.397Z,12.12
2018-09-09T02:50:14.958Z,12.09
2018-09-09T02:52:43.570Z,12.00
2018-09-09T02:55:12.171Z,11.92
2018-09-09T02:57:40.770Z,11.86
2018-09-09T03:00:09.346Z,11.77
2018-09-09T03:02:37.942Z,11.69
2018-09-09T03:05:06.697Z,11.65
2018-09-09T03:07:35.316Z,11.62
2018-09-09T03:10:03.901Z,11.63
2018-09-09T03:12:32.496Z,11.65
2018-09-09T03:15:01.049Z,11.65
2018-09-09T03:17:29.653Z,11.64
2018-09-09T03:19:58.259Z,11.63
2018-09-09T03:22:26.902Z,11.63
2018-09-09T03:24:55.493Z,11.65
2018-09-09T03:27:24.106Z,11.67
2018-09-09T03:29:52.669Z,11.69
2018-09-09T03:32:21.280Z,11.69
2018-09-09T03:34:49.861Z,11.66
2018-09-09T03:37:18.453Z,11.62
2018-09-09T03:39:47.027Z,11.58
2018-09-09T03:42:15.620Z,11.51
2018-09-09T03:44:44.187Z,11.50
2018-09-09T03:47:12.766Z,11.52
2018-09-09T03:49:41.359Z,11.55
2018-09-09T03:52:09.962Z,11.57
2018-09-09T03:54:38.529Z,11.59
2018-09-09T03:57:07.122Z,11.60
2018-09-09T03:59:35.763Z,11.58
2018-09-09T04:02:04.391Z,11.59
2018-09-09T04:04:33.014Z,11.59
2018-09-09T04:07:01.570Z,11.59
2018-09-09T04:09:30.170Z,11.57
2018-09-09T04:11:58.748Z,11.53
2018-09-09T04:14:27.355Z,11.47
2018-09-09T04:16:55.944Z,11.45
2018-09-09T04:19:24.549Z,11.43
2018-09-09T04:21:53.491Z,11.40
2018-09-09T04:24:23.334Z,11.32
2018-09-09T04:26:51.926Z,11.25
2018-09-09T04:29:20.506Z,11.18
2018-09-09T04:31:49.089Z,11.14
2018-09-09T04:34:17.680Z,11.10
2018-09-09T04:36:46.254Z,11.06
2018-09-09T04:39:15.156Z,11.01
2018-09-09T04:41:43.751Z,10.99
2018-09-09T04:44:13.587Z,11.01
2018-09-09T04:46:42.195Z,11.00
2018-09-09T04:49:11.001Z,11.01
2018-09-09T04:51:39.796Z,11.01
2018-09-09T04:54:08.415Z,11.00
2018-09-09T04:56:37.008Z,10.97
2018-09-09T04:59:05.704Z,10.93
2018-09-09T05:01:34.302Z,10.91
2018-09-09T05:04:02.915Z,10.93
2018-09-09T05:06:31.498Z,10.94
2018-09-09T05:09:00.109Z,10.97
2018-09-09T05:11:28.693Z,10.99
2018-09-09T05:13:57.277Z,10.99
2018-09-09T05:16:25.849Z,11.01
2018-09-09T05:18:54.461Z,11.06
2018-09-09T05:21:23.046Z,11.15
2018-09-09T05:23:51.649Z,11.23
2018-09-09T05:26:20.233Z,11.38
2018-09-09T05:28:48.821Z,11.48
2018-09-09T05:31:17.459Z,11.51
2018-09-09T05:33:46.056Z,11.53
2018-09-09T05:36:14.630Z,11.58
2018-09-09T05:38:43.228Z,11.64
2018-09-09T05:41:11.804Z,11.74
2018-09-09T05:43:40.391Z,11.90
2018-09-09T05:46:08.956Z,12.11
2018-09-09T05:48:37.553Z,12.29
2018-09-09T05:51:07.042Z,12.48
2018-09-09T05:53:35.624Z,12.67
2018-09-09T05:56:04.196Z,12.85
2018-09-09T05:58:32.788Z,13.03
2018-09-09T06:01:01.471Z,13.20
2018-09-09T06:03:30.075Z,13.39
2018-09-09T06:05:58.664Z,13.53
2018-09-09T06:08:27.266Z,13.64
2018-09-09T06:10:56.209Z,13.73
2018-09-09T06:13:26.151Z,13.82
2018-09-09T06:15:54.770Z,13.94
2018-09-09T06:18:23.337Z,14.03
2018-09-09T06:20:51.940Z,14.12
2018-09-09T06:23:20.520Z,14.20
2018-09-09T06:25:49.113Z,14.29
2018-09-09T06:28:17.758Z,14.37
2018-09-09T06:30:46.312Z,14.46
2018-09-09T06:33:14.875Z,14.59
2018-09-09T06:35:43.465Z,14.71
2018-09-09T06:38:12.077Z,14.81
2018-09-09T06:40:40.668Z,14.80
2018-09-09T06:43:09.339Z,14.85
2018-09-09T06:45:37.961Z,14.86
2018-09-09T06:48:06.546Z,14.95
2018-09-09T06:50:35.133Z,15.05
2018-09-09T06:53:03.710Z,15.11
2018-09-09T06:55:32.352Z,15.17
2018-09-09T06:58:00.929Z,15.25
2018-09-09T07:00:29.543Z,15.34
2018-09-09T07:02:58.115Z,15.46
2018-09-09T07:05:26.704Z,15.56
2018-09-09T07:07:55.313Z,15.67
2018-09-09T07:10:23.904Z,15.80
2018-09-09T07:12:52.488Z,15.94
2018-09-09T07:15:21.107Z,16.08
2018-09-09T07:17:49.681Z,16.19
2018-09-09T07:20:18.273Z,16.28
2018-09-09T07:22:46.893Z,16.33
2018-09-09T07:25:15.466Z,16.37
2018-09-09T07:27:44.049Z,16.36
2018-09-09T07:30:12.640Z,16.39
2018-09-09T07:32:41.214Z,16.43
2018-09-09T07:35:09.813Z,16.46
2018-09-09T07:37:38.384Z,16.52
2018-09-09T07:40:06.983Z,16.57
2018-09-09T07:42:35.575Z,16.67
2018-09-09T07:45:04.211Z,16.74
2018-09-09T07:47:32.830Z,16.79
2018-09-09T07:50:01.448Z,16.84
2018-09-09T07:52:30.033Z,16.94
2018-09-09T07:54:58.627Z,17.07
2018-09-09T07:57:27.228Z,17.17
2018-09-09T07:59:55.812Z,17.21
2018-09-09T08:02:24.382Z,17.28
2018-09-09T08:04:53.014Z,17.38
2018-09-09T08:07:21.603Z,17.53
2018-09-09T08:09:50.229Z,17.63
2018-09-09T08:12:18.794Z,17.76
2018-09-09T08:14:47.362Z,17.91
2018-09-09T08:17:15.981Z,18.01
2018-09-09T08:19:44.555Z,18.14
2018-09-09T08:22:13.158Z,18.41
2018-09-09T08:24:41.727Z,18.67
2018-09-09T08:27:10.319Z,18.78
2018-09-09T08:29:38.971Z,18.84
2018-09-09T08:32:07.558Z,18.90
2018-09-09T08:34:36.285Z,18.94
2018-09-09T08:37:05.091Z,19.01
2018-09-09T08:39:33.686Z,19.07
2018-09-09T08:42:02.295Z,19.10
2018-09-09T08:44:30.873Z,19.11
2018-09-09T08:46:59.474Z,19.25
2018-09-09T08:49:28.061Z,19.27
2018-09-09T08:51:56.784Z,19.35
2018-09-09T08:54:25.265Z,19.50
2018-09-09T08:56:53.874Z,19.58
2018-09-09T08:59:22.503Z,19.69
2018-09-09T09:01:51.090Z,19.78
2018-09-09T09:04:19.653Z,19.97
2018-09-09T09:06:48.259Z,20.17
2018-09-09T09:09:16.855Z,20.34
2018-09-09T09:11:45.458Z,20.42
2018-09-09T09:14:14.048Z,20.43
2018-09-09T09:16:42.660Z,20.24
2018-09-09T09:19:11.232Z,20.10
2018-09-09T09:21:39.832Z,20.10
2018-09-09T09:24:08.397Z,20.17
2018-09-09T09:26:36.992Z,20.28
2018-09-09T09:29:05.618Z,20.36
2018-09-09T09:31:34.221Z,20.33
2018-09-09T09:34:02.806Z,20.46
2018-09-09T09:36:31.395Z,20.50
2018-09-09T09:38:59.966Z,20.47
2018-09-09T09:41:28.558Z,20.74
2018-09-09T09:43:57.141Z,20.99
2018-09-09T09:46:25.754Z,21.02
2018-09-09T09:48:54.325Z,21.01
2018-09-09T09:51:22.926Z,21.00
2018-09-09T09:53:51.500Z,20.75
2018-09-09T09:56:20.107Z,20.91
2018-09-09T09:58:48.684Z,21.00
2018-09-09T10:01:17.280Z,21.18
2018-09-09T10:03:45.869Z,21.41
2018-09-09T10:06:14.512Z,21.61
2018-09-09T10:08:43.096Z,21.75
2018-09-09T10:11:11.678Z,21.74
2018-09-09T10:13:40.273Z,21.88
2018-09-09T10:16:08.855Z,21.77
2018-09-09T10:18:37.453Z,21.90
2018-09-09T10:21:06.040Z,22.09
2018-09-09T10:23:34.620Z,22.23
2018-09-09T10:26:03.199Z,22.12
2018-09-09T10:28:31.790Z,22.04
2018-09-09T10:31:00.367Z,21.97
2018-09-09T10:33:28.949Z,21.85
2018-09-09T10:35:57.521Z,21.49
2018-09-09T10:38:26.108Z,21.51
2018-09-09T10:40:54.697Z,21.40
2018-09-09T10:43:23.299Z,21.52
2018-09-09T10:45:51.862Z,21.62
2018-09-09T10:48:20.455Z,21.81
2018-09-09T10:50:49.023Z,21.99
2018-09-09T10:53:17.671Z,22.12
2018-09-09T10:55:46.236Z,21.89
2018-09-09T10:58:14.829Z,22.05
2018-09-09T11:00:43.399Z,22.26
2018-09-09T11:03:11.986Z,22.43
2018-09-09T11:05:40.798Z,22.68
2018-09-09T11:08:13.809Z,22.88
2018-09-09T11:10:42.397Z,22.96
2018-09-09T11:13:11.012Z,23.01
2018-09-09T11:15:39.622Z,22.99
2018-09-09T11:18:08.318Z,22.96
2018-09-09T11:20:36.887Z,22.81
2018-09-09T11:23:05.481Z,22.73
2018-09-09T11:25:34.048Z,22.46
2018-09-09T11:28:02.645Z,22.59
2018-09-09T11:30:31.281Z,22.72
2018-09-09T11:32:59.863Z,22.83
2018-09-09T11:35:28.630Z,22.63
2018-09-09T11:37:57.565Z,22.64
2018-09-09T11:40:26.651Z,22.69
2018-09-09T11:42:55.323Z,22.79
2018-09-09T11:45:23.913Z,22.80
2018-09-09T11:47:52.560Z,22.89
2018-09-09T11:50:21.145Z,22.74
2018-09-09T11:52:49.727Z,22.47
2018-09-09T11:55:18.304Z,22.61
2018-09-09T11:57:46.932Z,22.82
2018-09-09T12:00:15.518Z,22.94
2018-09-09T12:02:44.154Z,22.99
2018-09-09T12:05:12.706Z,23.04
2018-09-09T12:07:41.292Z,23.17
2018-09-09T12:10:09.859Z,23.11
2018-09-09T12:12:38.456Z,23.03
2018-09-09T12:15:07.067Z,23.04
2018-09-09T12:17:35.629Z,22.98
2018-09-09T12:20:04.262Z,22.92
2018-09-09T12:22:32.823Z,22.95
2018-09-09T12:25:01.410Z,23.00
2018-09-09T12:27:30.009Z,23.16
2018-09-09T12:29:58.629Z,23.09
2018-09-09T12:32:27.208Z,23.16
2018-09-09T12:34:55.788Z,23.39
2018-09-09T12:37:24.356Z,23.63
2018-09-09T12:39:52.950Z,23.73
2018-09-09T12:42:22.313Z,23.68
2018-09-09T12:44:56.141Z,23.73
2018-09-09T12:47:30.131Z,23.70
2018-09-09T12:49:58.711Z,22.99
2018-09-09T12:52:27.290Z,22.89
2018-09-09T12:54:55.924Z,22.94
2018-09-09T12:57:24.469Z,23.24
2018-09-09T12:59:53.118Z,23.56
2018-09-09T13:02:21.693Z,23.57
2018-09-09T13:04:50.262Z,23.64
2018-09-09T13:07:18.868Z,23.57
2018-09-09T13:09:47.461Z,23.64
2018-09-09T13:12:16.059Z,23.50
2018-09-09T13:14:44.660Z,23.01
2018-09-09T13:17:13.220Z,22.96
2018-09-09T13:19:41.809Z,23.15
2018-09-09T13:22:10.425Z,23.43
2018-09-09T13:24:39.027Z,23.52
2018-09-09T13:27:07.635Z,23.68
2018-09-09T13:29:36.208Z,23.81
2018-09-09T13:32:04.789Z,23.88
2018-09-09T13:34:33.361Z,23.94
2018-09-09T13:37:01.917Z,24.13
2018-09-09T13:39:30.518Z,24.19
2018-09-09T13:41:59.078Z,24.34
2018-09-09T13:44:27.665Z,24.39
2018-09-09T13:46:56.229Z,24.28
2018-09-09T13:49:24.825Z,24.34
2018-09-09T13:51:53.376Z,24.14
2018-09-09T13:54:21.960Z,24.03
2018-09-09T13:56:50.533Z,24.03
2018-09-09T13:59:19.107Z,24.12
2018-09-09T14:01:47.660Z,23.97
2018-09-09T14:04:16.236Z,24.03
2018-09-09T14:06:44.801Z,24.14
2018-09-09T14:09:13.378Z,24.20
2018-09-09T14:11:41.974Z,24.12
2018-09-09T14:14:10.521Z,24.02
2018-09-09T14:16:39.094Z,23.93
2018-09-09T14:19:07.654Z,23.92
2018-09-09T14:21:36.231Z,23.94
2018-09-09T14:24:04.804Z,23.94
2018-09-09T14:26:33.386Z,23.93
2018-09-09T14:29:01.959Z,23.74
2018-09-09T14:31:30.536Z,23.71
2018-09-09T14:33:59.094Z,23.87
2018-09-09T14:36:27.663Z,23.92
2018-09-09T14:38:56.204Z,24.01
2018-09-09T14:41:24.781Z,24.02
2018-09-09T14:43:53.368Z,24.01
2018-09-09T14:46:21.957Z,23.95
2018-09-09T14:48:50.520Z,23.90
2018-09-09T14:51:19.097Z,23.66
2018-09-09T14:53:47.664Z,23.64
2018-09-09T14:56:16.256Z,23.55
2018-09-09T14:58:44.825Z,23.59
2018-09-09T15:01:13.443Z,23.63
2018-09-09T15:03:42.018Z,23.67
2018-09-09T15:06:10.581Z,23.71
2018-09-09T15:08:39.154Z,23.76
2018-09-09T15:11:07.740Z,23.74
2018-09-09T15:13:36.289Z,23.69
2018-09-09T15:16:04.867Z,23.62
2018-09-09T15:18:33.467Z,23.44
2018-09-09T15:21:02.035Z,23.39
2018-09-09T15:23:30.619Z,23.29
2018-09-09T15:25:59.153Z,23.07
2018-09-09T15:28:27.773Z,22.86
2018-09-09T15:30:56.330Z,22.71
2018-09-09T15:33:24.916Z,22.61
2018-09-09T15:35:53.488Z,22.58
2018-09-09T15:38:22.071Z,22.56
2018-09-09T15:40:50.740Z,22.54
2018-09-09T15:43:19.337Z,22.46
2018-09-09T15:45:47.884Z,22.38
2018-09-09T15:48:16.614Z,22.24
2018-09-09T15:50:45.220Z,22.30
2018-09-09T15:53:13.825Z,22.45
2018-09-09T15:55:42.389Z,22.62
2018-09-09T15:58:11.030Z,22.77
2018-09-09T16:00:39.601Z,22.92
2018-09-09T16:03:08.190Z,23.05
2018-09-09T16:05:36.732Z,23.20
2018-09-09T16:08:05.356Z,23.21
2018-09-09T16:10:33.908Z,23.18
2018-09-09T16:13:02.494Z,23.20
2018-09-09T16:15:31.041Z,23.15
2018-09-09T16:17:59.852Z,23.06
2018-09-09T16:20:31.370Z,22.86
2018-09-09T16:23:00.133Z,22.68
2018-09-09T16:25:29.098Z,22.50
2018-09-09T16:27:57.705Z,22.32
2018-09-09T16:30:26.297Z,22.13
2018-09-09T16:32:54.885Z,21.99
2018-09-09T16:35:23.454Z,21.81
2018-09-09T16:37:52.022Z,21.63
2018-09-09T16:40:20.613Z,21.46
2018-09-09T16:42:49.327Z,21.33
2018-09-09T16:45:17.952Z,21.19
2018-09-09T16:47:46.535Z,21.07
2018-09-09T16:50:15.138Z,20.95
2018-09-09T16:52:43.781Z,20.82
2018-09-09T16:55:12.354Z,20.70
2018-09-09T16:57:40.954Z,20.60
2018-09-09T17:00:09.580Z,20.46
2018-09-09T17:02:38.173Z,20.31
2018-09-09T17:05:06.892Z,20.19
2018-09-09T17:07:35.489Z,20.05
2018-09-09T17:10:04.105Z,19.95
2018-09-09T17:12:32.689Z,19.88
2018-09-09T17:15:01.333Z,19.80
2018-09-09T17:17:29.927Z,19.74
2018-09-09T17:19:58.557Z,19.69
2018-09-09T17:22:27.121Z,19.63
2018-09-09T17:24:55.739Z,19.55
2018-09-09T17:27:24.360Z,19.45
2018-09-09T17:29:52.982Z,19.35
2018-09-09T17:32:21.563Z,19.25
2018-09-09T17:34:50.206Z,19.12
2018-09-09T17:37:18.794Z,18.96
2018-09-09T17:39:47.390Z,18.75
2018-09-09T17:42:15.959Z,18.56
2018-09-09T17:44:44.563Z,18.45
2018-09-09T17:47:13.162Z,18.35
2018-09-09T17:49:41.757Z,18.23
2018-09-09T17:52:10.317Z,18.13
2018-09-09T17:54:38.926Z,18.03
2018-09-09T17:57:07.512Z,17.93
2018-09-09T17:59:36.085Z,17.86
2018-09-09T18:02:04.749Z,17.83
2018-09-09T18:04:33.368Z,17.81
2018-09-09T18:07:01.969Z,17.79
2018-09-09T18:09:30.548Z,17.76
2018-09-09T18:11:59.166Z,17.74
2018-09-09T18:14:27.741Z,17.73
2018-09-09T18:16:56.342Z,17.73
2018-09-09T18:19:24.941Z,17.65
2018-09-09T18:21:53.534Z,17.59
2018-09-09T18:24:22.107Z,17.52
2018-09-09T18:26:50.700Z,17.44
2018-09-09T18:29:19.334Z,17.35
2018-09-09T18:31:47.959Z,17.27
2018-09-09T18:34:16.544Z,17.17
2018-09-09T18:36:45.830Z,17.04
2018-09-09T18:39:14.405Z,16.78
2018-09-09T18:41:43.022Z,16.64
2018-09-09T18:44:11.619Z,16.51
2018-09-09T18:46:40.218Z,16.37
2018-09-09T18:49:08.817Z,16.28
2018-09-09T18:51:37.414Z,16.19
2018-09-09T18:54:05.986Z,16.15
2018-09-09T18:56:34.584Z,16.11
2018-09-09T18:59:03.282Z,16.03
2018-09-09T19:01:31.837Z,15.97
2018-09-09T19:04:00.401Z,15.91
2018-09-09T19:06:28.998Z,15.87
2018-09-09T19:08:57.599Z,15.75
2018-09-09T19:11:26.188Z,15.59
2018-09-09T19:13:54.802Z,15.46
2018-09-09T19:16:23.399Z,15.34
2018-09-09T19:18:51.968Z,15.24
2018-09-09T19:21:20.579Z,15.20
2018-09-09T19:23:49.219Z,15.18
2018-09-09T19:26:17.789Z,15.11
2018-09-09T19:28:46.457Z,15.08
2018-09-09T19:31:14.998Z,15.00
2018-09-09T19:33:43.570Z,14.93
2018-09-09T19:36:12.149Z,14.83
2018-09-09T19:38:40.727Z,14.72
2018-09-09T19:41:09.292Z,14.67
2018-09-09T19:43:37.862Z,14.60
2018-09-09T19:46:06.453Z,14.57
2018-09-09T19:48:35.073Z,14.55
2018-09-09T19:51:03.698Z,14.54
2018-09-09T19:53:32.301Z,14.52
2018-09-09T19:56:00.891Z,14.44
2018-09-09T19:58:29.499Z,14.28
2018-09-09T20:00:58.067Z,14.20
2018-09-09T20:03:26.656Z,14.16
2018-09-09T20:05:55.211Z,14.16
2018-09-09T20:08:23.842Z,14.19
2018-09-09T20:10:52.409Z,14.21
2018-09-09T20:13:20.989Z,14.18
2018-09-09T20:15:49.601Z,14.13
2018-09-09T20:18:18.134Z,14.07
2018-09-09T20:20:46.702Z,14.02
2018-09-09T20:23:15.319Z,13.94
2018-09-09T20:25:43.932Z,13.90
2018-09-09T20:28:12.514Z,13.85
2018-09-09T20:30:41.766Z,13.79
2018-09-09T20:33:10.328Z,13.75
2018-09-09T20:35:38.912Z,13.72
2018-09-09T20:38:07.481Z,13.62
2018-09-09T20:40:36.079Z,13.50
2018-09-09T20:43:04.662Z,13.42
2018-09-09T20:45:33.254Z,13.35
2018-09-09T20:48:01.833Z,13.37
2018-09-09T20:50:30.436Z,13.40
2018-09-09T20:52:59.001Z,13.42
2018-09-09T20:55:27.595Z,13.41
2018-09-09T20:57:56.166Z,13.30
2018-09-09T21:00:24.818Z,13.21
2018-09-09T21:02:53.376Z,13.14
2018-09-09T21:05:21.982Z,13.03
2018-09-09T21:07:50.555Z,12.96
2018-09-09T21:10:19.175Z,12.91
2018-09-09T21:12:47.764Z,12.82
2018-09-09T21:15:16.371Z,12.80
2018-09-09T21:17:44.937Z,12.78
2018-09-09T21:20:13.509Z,12.76
2018-09-09T21:22:42.115Z,12.68
2018-09-09T21:25:10.700Z,12.54
2018-09-09T21:27:39.346Z,12.49
2018-09-09T21:30:07.934Z,12.47
2018-09-09T21:32:36.521Z,12.47
2018-09-09T21:35:05.131Z,12.43
2018-09-09T21:37:33.698Z,12.36
2018-09-09T21:40:02.245Z,12.25
2018-09-09T21:42:30.821Z,12.15
2018-09-09T21:44:59.374Z,12.17
2018-09-09T21:47:27.980Z,12.20
2018-09-09T21:49:56.525Z,12.15
2018-09-09T21:52:25.191Z,12.13
2018-09-09T21:54:53.768Z,12.08
2018-09-09T21:57:22.358Z,12.06
2018-09-09T21:59:50.906Z,12.01
2018-09-09T22:02:19.494Z,11.97
2018-09-09T22:04:48.061Z,11.95
2018-09-09T22:07:16.634Z,11.97
2018-09-09T22:09:45.664Z,11.98
2018-09-09T22:12:14.313Z,11.97
2018-09-09T22:14:43.268Z,11.89
2018-09-09T22:17:12.205Z,11.91
2018-09-09T22:19:40.854Z,11.93
2018-09-09T22:22:09.475Z,11.98
2018-09-09T22:24:38.028Z,12.00
2018-09-09T22:27:06.684Z,12.01
2018-09-09T22:29:35.245Z,11.95
2018-09-09T22:32:03.820Z,11.89
2018-09-09T22:34:32.401Z,11.84
2018-09-09T22:37:00.984Z,11.83
2018-09-09T22:39:29.546Z,11.86
2018-09-09T22:41:58.092Z,11.86
2018-09-09T22:44:26.781Z,11.86
2018-09-09T22:46:55.332Z,11.89
2018-09-09T22:49:23.907Z,11.87
2018-09-09T22:51:52.531Z,11.80
2018-09-09T22:54:21.121Z,11.73
2018-09-09T22:56:49.694Z,11.66
2018-09-09T22:59:18.283Z,11.66
2018-09-09T23:01:46.859Z,11.67
2018-09-09T23:04:15.453Z,11.65
2018-09-09T23:06:44.032Z,11.63
2018-09-09T23:09:13.482Z,11.60
2018-09-09T23:11:42.070Z,11.55
2018-09-09T23:14:10.704Z,11.49
2018-09-09T23:16:39.278Z,11.49
2018-09-09T23:19:07.874Z,11.48
2018-09-09T23:21:36.450Z,11.39
2018-09-09T23:24:05.060Z,11.35
2018-09-09T23:26:33.620Z,11.37
2018-09-09T23:29:02.213Z,11.29
2018-09-09T23:31:30.789Z,11.25
2018-09-09T23:33:59.393Z,11.18
2018-09-09T23:36:28.045Z,11.13
2018-09-09T23:38:56.612Z,11.12
2018-09-09T23:41:25.206Z,11.06
2018-09-09T23:43:53.793Z,11.03
2018-09-09T23:46:22.398Z,10.98
2018-09-09T23:48:50.981Z,10.96
2018-09-09T23:51:19.556Z,10.98
2018-09-09T23:53:48.142Z,11.01
2018-09-09T23:56:16.748Z,10.98
2018-09-09T23:58:45.353Z,10.94
